Aérodrome :
LOGIN :

S'inscrire | Disclaimer

   EN    FR    IT 

 










Légende :    VFR   VFR Marginal   IFR   IFR Intensif   IFR Très Intensif
Visi : 
Plafond : 
>= 8 km
>= 3000ft
5 à 8 km
1000 à 3000 ft
1500m à 5 km
500 à 1000 ft
800 à 1500m
200 à 500 ft
< 800m
< 200 ft
Symboles :   Orages  Brouillard  Fortes neiges  Fortes précipitations  Vent > 20 kt
SIGMETs :   Divers  Orages  Givrage  Turbulence  Onde Orograph.  Cendres Volcan.







- Altitude de l'aérodrome : 3 ft
- Code IATA : DHR


EHKD - Den Helder De Kooy

DERNIER METAR :
  • 211725Z AUTO 20019KT 9999 NCD 13/10 Q1005 BLU 21020G30KT 9999 SCT020 BKN050 TEMPO FEW015 SCT018CB

METARs EXPIRÉS :
  • 211655Z AUTO 20021KT 9999 FEW015CB BKN130 OVC180 13/10 Q1005 BLU 21020G30KT 9999 SCT020 BKN050 TEMPO FEW015 SCT018CB
  • 211625Z AUTO 21023G36KT 9999 SCT027 SCT031 BKN200 14/09 Q1005 BLU 21020G30KT 9999 SCT020 BKN050 TEMPO FEW015 SCT018CB
  • 211601Z AUTO 20020G30KT 170V230 9999 SCT030 SCT036 OVC180 15/10 Q1005 BLU 21020G30KT 9999 SCT020 BKN050 TEMPO FEW015 SCT018CB
  • 211555Z AUTO 20018KT 9999 FEW016CB OVC170 14/10 Q1005 BLU 21020G30KT 9999 SCT020 BKN050 TEMPO 4500 SHRA FEW015 SCT018CB
  • 211525Z AUTO 20021KT 9999 FEW016CB SCT062 BKN110 14/09 Q1006 BLU 21020G30KT 9999 SCT020 BKN050 TEMPO 4500 SHRA FEW015 SCT018CB
  • 211455Z AUTO 21018KT 180V240 9999 FEW019CB BKN140 15/10 Q1005 BLU 21020G30KT 9999 SCT020 BKN050 TEMPO 4500 SHRA FEW015 SCT018CB
  • 211425Z AUTO 22023G35KT 9999 -RA FEW021 SCT029 BKN053 14/12 Q1006 BLU 21020G30KT 9999 SCT020 BKN050 TEMPO 4500 SHRA FEW015 SCT018CB

TAF TAF EHKD
Valide du 21 à 17h jusqu'au 22 à 05h UTC


211656Z 2117/2205 20020KT 9999 SCT030
TEMPO 2117/2121 FEW015 SCT018CB SCT025
PROB30
TEMPO 2117/2121 4500 TSRA SCT015CB BKN020
BECMG 2122/2202 20015G25KT FEW010 SCT018 BKN030
PROB40
TEMPO 2200/2205 25020G30KT 4500 SHRA RA SCT010 SCT018CB OVC030
PROB30
TEMPO 2200/2205 3000 +SHRA TSRA FEW005 SCT008 BKN015CB
Pas de NOTAMs connus pour ce terrain.



MET'MAP, la Météo Aéronautique d'un coup d'oeil ! - Copyright ORBIFLY Décembre 2007 - Disclaimer

ORBIFLY MET'MAP TEAM :

Programmation & Développement : Alexandra Zaïnal
Conception & Développement : Baudouin d'Aumeries
Co-Programmation & Développement : Marc-Olivier Méhu
Soutien technique & logistique : Manuel Goepfert

Contact : metmap@orbifly.com




SOURCES & CREDITS :

   NOAA